createdAt,value
2023-01-02T00:01:30.476Z,4.30
2023-01-02T00:03:59.384Z,4.60
2023-01-02T00:06:28.004Z,4.45
2023-01-02T00:08:57.793Z,3.60
2023-01-02T00:11:26.210Z,4.28
2023-01-02T00:13:54.616Z,3.85
2023-01-02T00:16:23.139Z,3.90
2023-01-02T00:18:51.743Z,3.60
2023-01-02T00:21:20.468Z,4.53
2023-01-02T00:23:48.883Z,3.70
2023-01-02T00:26:18.683Z,3.60
2023-01-02T00:28:47.100Z,3.45
2023-01-02T00:31:17.076Z,3.80
2023-01-02T00:33:45.502Z,3.38
2023-01-02T00:36:14.450Z,3.40
2023-01-02T00:38:42.969Z,3.75
2023-01-02T00:41:11.685Z,3.90
2023-01-02T00:43:43.530Z,3.83
2023-01-02T00:46:12.596Z,3.97
2023-01-02T00:48:41.052Z,3.65
2023-01-02T00:51:09.789Z,3.45
2023-01-02T00:53:38.389Z,3.50
2023-01-02T00:56:07.099Z,3.63
2023-01-02T00:58:35.561Z,4.00
2023-01-02T01:01:06.053Z,4.38
2023-01-02T01:03:34.568Z,3.90
2023-01-02T01:06:07.656Z,3.88
2023-01-02T01:08:36.827Z,4.10
2023-01-02T01:11:08.871Z,3.65
2023-01-02T01:13:37.659Z,3.63
2023-01-02T01:16:08.943Z,3.80
2023-01-02T01:18:37.733Z,3.20
2023-01-02T01:21:10.065Z,4.40
2023-01-02T01:23:38.501Z,4.13
2023-01-02T01:26:07.793Z,4.32
2023-01-02T01:28:36.545Z,4.20
2023-01-02T01:31:05.122Z,4.22
2023-01-02T01:33:34.936Z,4.10
2023-01-02T01:36:03.852Z,4.60
2023-01-02T01:38:32.928Z,4.30
2023-01-02T01:41:01.571Z,3.85
2023-01-02T01:43:40.380Z,4.50
2023-01-02T01:46:10.890Z,3.97
2023-01-02T01:48:40.853Z,4.18
2023-01-02T01:51:09.371Z,4.93
2023-01-02T01:53:37.906Z,5.03
2023-01-02T01:56:07.979Z,4.35
2023-01-02T01:58:39.334Z,4.90
2023-01-02T02:01:08.066Z,4.68
2023-01-02T02:03:37.166Z,5.18
2023-01-02T02:06:07.171Z,4.35
2023-01-02T02:08:38.543Z,4.82
2023-01-02T02:11:07.713Z,4.28
2023-01-02T02:13:36.238Z,4.28
2023-01-02T02:16:09.575Z,4.63
2023-01-02T02:18:46.522Z,4.63
2023-01-02T02:21:26.749Z,4.18
2023-01-02T02:24:04.450Z,3.90
2023-01-02T02:26:50.815Z,4.20
2023-01-02T02:29:34.110Z,4.30
2023-01-02T02:32:08.327Z,4.38
2023-01-02T02:34:40.562Z,4.95
2023-01-02T02:37:14.072Z,4.57
2023-01-02T02:39:48.102Z,4.60
2023-01-02T02:42:31.723Z,4.20
2023-01-02T02:45:03.661Z,5.38
2023-01-02T02:47:35.755Z,4.65
2023-01-02T02:50:07.415Z,4.97
2023-01-02T02:52:39.069Z,5.10
2023-01-02T02:55:10.248Z,4.80
2023-01-02T02:57:40.255Z,4.68
2023-01-02T03:00:10.713Z,4.88
2023-01-02T03:02:40.740Z,5.00
2023-01-02T03:05:10.112Z,4.85
2023-01-02T03:07:41.124Z,4.82
2023-01-02T03:10:17.157Z,4.75
2023-01-02T03:12:48.730Z,4.82
2023-01-02T03:15:20.513Z,5.07
2023-01-02T03:18:03.787Z,5.13
2023-01-02T03:20:35.597Z,5.28
2023-01-02T03:23:07.295Z,5.03
2023-01-02T03:25:36.282Z,4.65
2023-01-02T03:28:06.906Z,4.47
2023-01-02T03:30:36.992Z,5.05
2023-01-02T03:33:06.762Z,5.28
2023-01-02T03:35:38.389Z,4.53
2023-01-02T03:38:08.749Z,5.07
2023-01-02T03:40:39.256Z,5.50
2023-01-02T03:43:10.942Z,4.70
2023-01-02T03:45:42.240Z,4.97
2023-01-02T03:48:12.369Z,4.90
2023-01-02T03:50:47.284Z,5.28
2023-01-02T03:53:15.852Z,4.88
2023-01-02T03:55:48.444Z,4.55
2023-01-02T03:58:20.346Z,5.07
2023-01-02T04:00:53.551Z,4.93
2023-01-02T04:03:23.571Z,5.43
2023-01-02T04:05:54.724Z,5.30
2023-01-02T04:08:24.788Z,4.97
2023-01-02T04:10:58.328Z,5.13
2023-01-02T04:13:29.636Z,5.03
2023-01-02T04:15:58.874Z,5.05
2023-01-02T04:18:28.572Z,4.90
2023-01-02T04:21:00.751Z,5.55
2023-01-02T04:23:31.212Z,4.60
2023-01-02T04:26:02.679Z,4.90
2023-01-02T04:28:32.040Z,5.03
2023-01-02T04:31:04.531Z,4.47
2023-01-02T04:33:33.907Z,5.38
2023-01-02T04:36:10.275Z,5.13
2023-01-02T04:38:38.793Z,4.85
2023-01-02T04:41:08.593Z,4.95
2023-01-02T04:43:37.024Z,5.20
2023-01-02T04:46:05.580Z,5.00
2023-01-02T04:48:34.072Z,5.07
2023-01-02T04:51:02.583Z,4.50
2023-01-02T04:53:32.371Z,4.57
2023-01-02T04:56:00.855Z,4.40
2023-01-02T04:58:29.278Z,4.20
2023-01-02T05:00:57.720Z,4.43
2023-01-02T05:03:26.246Z,4.57
2023-01-02T05:06:01.500Z,4.10
2023-01-02T05:08:32.003Z,3.95
2023-01-02T05:11:00.422Z,4.03
2023-01-02T05:13:28.831Z,4.45
2023-01-02T05:15:57.762Z,4.07
2023-01-02T05:18:26.195Z,3.75
2023-01-02T05:20:54.615Z,3.83
2023-01-02T05:23:40.706Z,4.00
2023-01-02T05:26:13.441Z,3.67
2023-01-02T05:28:42.383Z,4.28
2023-01-02T05:31:11.054Z,3.75
2023-01-02T05:33:39.461Z,3.95
2023-01-02T05:36:08.614Z,3.28
2023-01-02T05:38:39.755Z,3.85
2023-01-02T05:41:09.467Z,3.50
2023-01-02T05:43:39.720Z,3.95
2023-01-02T05:46:12.014Z,3.50
2023-01-02T05:48:41.242Z,3.22
2023-01-02T05:51:11.006Z,3.63
2023-01-02T05:53:39.653Z,3.80
2023-01-02T05:56:08.882Z,3.50
2023-01-02T05:58:39.422Z,3.30
2023-01-02T06:01:08.418Z,3.10
2023-01-02T06:03:36.896Z,3.45
2023-01-02T06:06:06.312Z,3.38
2023-01-02T06:08:34.732Z,3.38
2023-01-02T06:11:03.313Z,3.17
2023-01-02T06:13:31.953Z,3.45
2023-01-02T06:16:02.622Z,3.70
2023-01-02T06:18:32.221Z,3.55
2023-01-02T06:21:00.981Z,3.97
2023-01-02T06:23:29.436Z,3.38
2023-01-02T06:25:57.875Z,3.55
2023-01-02T06:28:26.275Z,3.15
2023-01-02T06:30:54.759Z,3.65
2023-01-02T06:33:24.535Z,3.83
2023-01-02T06:35:58.470Z,3.40
2023-01-02T06:38:26.860Z,3.17
2023-01-02T06:40:55.616Z,3.55
2023-01-02T06:43:24.846Z,3.28
2023-01-02T06:45:53.795Z,3.30
2023-01-02T06:48:22.285Z,3.47
2023-01-02T06:50:52.086Z,2.90
2023-01-02T06:53:20.546Z,3.03
2023-01-02T06:55:55.972Z,3.10
2023-01-02T06:58:25.324Z,3.63
2023-01-02T07:00:54.284Z,3.10
2023-01-02T07:03:22.831Z,3.70
2023-01-02T07:05:52.654Z,3.20
2023-01-02T07:08:21.118Z,3.35
2023-01-02T07:10:53.020Z,3.35
2023-01-02T07:13:21.842Z,3.38
2023-01-02T07:15:50.264Z,3.20
2023-01-02T07:18:18.667Z,3.60
2023-01-02T07:20:47.140Z,3.72
2023-01-02T07:23:16.899Z,3.28
2023-01-02T07:25:45.303Z,3.20
2023-01-02T07:28:13.748Z,3.08
2023-01-02T07:30:42.170Z,2.95
2023-01-02T07:33:10.630Z,2.80
2023-01-02T07:35:39.108Z,2.85
2023-01-02T07:38:07.515Z,3.60
2023-01-02T07:40:37.329Z,3.22
2023-01-02T07:43:05.741Z,3.25
2023-01-02T07:45:34.918Z,2.83
2023-01-02T07:48:03.449Z,3.25
2023-01-02T07:50:31.853Z,3.22
2023-01-02T07:53:00.282Z,3.53
2023-01-02T07:55:28.707Z,3.53
2023-01-02T07:57:58.509Z,3.10
2023-01-02T08:00:27.063Z,3.35
2023-01-02T08:02:55.487Z,3.13
2023-01-02T08:05:24.094Z,3.17
2023-01-02T08:07:52.574Z,3.47
2023-01-02T08:10:20.991Z,3.20
2023-01-02T08:12:49.489Z,3.10
2023-01-02T08:15:19.398Z,3.17
2023-01-02T08:17:47.811Z,4.22
2023-01-02T08:20:16.315Z,3.53
2023-01-02T08:22:44.774Z,4.30
2023-01-02T08:25:13.258Z,3.95
2023-01-02T08:27:41.716Z,4.78
2023-01-02T08:30:10.409Z,3.78
2023-01-02T08:32:40.214Z,4.53
2023-01-02T08:35:09.473Z,5.80
2023-01-02T08:37:37.879Z,5.70
2023-01-02T08:40:06.874Z,4.90
2023-01-02T08:42:35.374Z,4.53
2023-01-02T08:45:03.810Z,3.90
2023-01-02T08:47:32.200Z,2.88
2023-01-02T08:50:01.999Z,2.92
2023-01-02T08:52:30.430Z,2.22
2023-01-02T08:55:00.931Z,1.90
2023-01-02T08:57:29.364Z,1.58
2023-01-02T08:59:57.900Z,1.70
2023-01-02T09:02:26.688Z,2.05
2023-01-02T09:04:55.336Z,1.95
2023-01-02T09:07:25.130Z,1.95
2023-01-02T09:09:53.566Z,1.90
2023-01-02T09:12:22.039Z,1.90
2023-01-02T09:14:50.515Z,1.40
2023-01-02T09:17:19.028Z,1.98
2023-01-02T09:19:48.645Z,1.67
2023-01-02T09:22:17.055Z,1.70
2023-01-02T09:24:46.868Z,1.50
2023-01-02T09:27:16.184Z,1.80
2023-01-02T09:29:44.617Z,1.85
2023-01-02T09:32:13.054Z,1.83
2023-01-02T09:34:41.471Z,2.17
2023-01-02T09:37:10.410Z,2.60
2023-01-02T09:39:38.896Z,2.53
2023-01-02T09:42:13.206Z,2.85
2023-01-02T09:44:42.794Z,2.78
2023-01-02T09:47:15.501Z,3.10
2023-01-02T09:49:45.659Z,2.90
2023-01-02T09:52:17.271Z,3.30
2023-01-02T09:54:45.750Z,3.17
2023-01-02T09:57:23.894Z,3.60
2023-01-02T09:59:55.710Z,2.97
2023-01-02T10:02:30.009Z,2.40
2023-01-02T10:05:08.692Z,3.50
2023-01-02T10:07:40.993Z,4.25
2023-01-02T10:10:11.695Z,4.60
2023-01-02T10:12:44.543Z,4.95
2023-01-02T10:15:15.653Z,4.97
2023-01-02T10:17:46.668Z,5.53
2023-01-02T10:20:23.957Z,6.20
2023-01-02T10:22:54.945Z,5.80
2023-01-02T10:25:24.436Z,6.57
2023-01-02T10:27:56.403Z,7.82
2023-01-02T10:30:26.231Z,7.07
2023-01-02T10:32:57.950Z,7.72
2023-01-02T10:35:36.445Z,7.57
2023-01-02T10:38:04.986Z,8.02
2023-01-02T10:40:33.727Z,9.48
2023-01-02T10:43:03.646Z,9.55
2023-01-02T10:45:32.139Z,9.82
2023-01-02T10:48:00.557Z,9.25
2023-01-02T10:50:31.102Z,9.82
2023-01-02T10:53:07.492Z,9.05
2023-01-02T10:55:39.105Z,9.25
2023-01-02T10:58:13.848Z,9.50
2023-01-02T11:00:42.386Z,9.88
2023-01-02T11:03:16.251Z,9.20
2023-01-02T11:05:49.175Z,9.48
2023-01-02T11:08:19.724Z,9.43
2023-01-02T11:10:48.213Z,10.50
2023-01-02T11:13:18.890Z,9.40
2023-01-02T11:15:51.445Z,9.50
2023-01-02T11:18:22.189Z,9.45
2023-01-02T11:20:52.247Z,9.38
2023-01-02T11:23:23.230Z,10.45
2023-01-02T11:25:52.715Z,9.82
2023-01-02T11:28:23.429Z,10.88
2023-01-02T11:30:53.264Z,10.80
2023-01-02T11:33:27.233Z,10.80
2023-01-02T11:35:56.938Z,10.98
2023-01-02T11:38:29.432Z,11.82
2023-01-02T11:40:59.896Z,12.23
2023-01-02T11:43:48.679Z,11.40
2023-01-02T11:46:24.005Z,11.48
2023-01-02T11:48:53.834Z,11.48
2023-01-02T11:51:23.342Z,11.57
2023-01-02T11:53:54.639Z,10.95
2023-01-02T11:56:27.181Z,9.98
2023-01-02T11:59:00.889Z,10.57
2023-01-02T12:01:31.598Z,10.07
2023-01-02T12:04:01.174Z,9.93
2023-01-02T12:06:37.207Z,9.70
2023-01-02T12:09:06.813Z,9.63
2023-01-02T12:11:45.651Z,9.48
2023-01-02T12:14:18.020Z,9.50
2023-01-02T12:16:48.885Z,8.48
2023-01-02T12:19:33.023Z,9.40
2023-01-02T12:22:08.763Z,8.85
2023-01-02T12:24:46.288Z,8.27
2023-01-02T12:27:16.981Z,9.35
2023-01-02T12:29:58.862Z,9.07
2023-01-02T12:32:42.241Z,8.55
2023-01-02T12:35:18.068Z,8.73
2023-01-02T12:37:49.932Z,8.77
2023-01-02T12:40:24.960Z,9.52
2023-01-02T12:43:03.960Z,9.32
2023-01-02T12:45:38.729Z,9.77
2023-01-02T12:48:12.053Z,10.15
2023-01-02T12:50:52.078Z,9.13
2023-01-02T12:53:23.793Z,9.13
2023-01-02T12:55:59.830Z,10.50
2023-01-02T12:58:49.156Z,9.35
2023-01-02T13:01:23.287Z,8.93
2023-01-02T13:03:58.299Z,9.32
2023-01-02T13:06:43.634Z,9.00
2023-01-02T13:09:22.323Z,9.70
2023-01-02T13:11:53.985Z,9.40
2023-01-02T13:14:24.928Z,8.52
2023-01-02T13:16:57.447Z,9.73
2023-01-02T13:19:30.125Z,9.18
2023-01-02T13:22:01.391Z,8.77
2023-01-02T13:24:30.243Z,8.85
2023-01-02T13:26:59.879Z,9.30
2023-01-02T13:29:29.680Z,8.93
2023-01-02T13:31:59.648Z,8.30
2023-01-02T13:34:29.874Z,8.02
2023-01-02T13:37:03.431Z,8.38
2023-01-02T13:39:34.401Z,8.18
2023-01-02T13:42:23.399Z,7.80
2023-01-02T13:44:52.776Z,7.03
2023-01-02T13:47:33.553Z,7.57
2023-01-02T13:50:04.931Z,6.55
2023-01-02T13:52:33.442Z,6.13
2023-01-02T13:55:12.697Z,6.30
2023-01-02T13:57:41.157Z,6.53
2023-01-02T14:00:31.724Z,6.03
2023-01-02T14:03:35.258Z,6.63
2023-01-02T14:06:04.787Z,6.53
2023-01-02T14:08:33.711Z,7.22
2023-01-02T14:11:03.778Z,6.07
2023-01-02T14:13:36.671Z,5.32
2023-01-02T14:16:17.741Z,4.90
2023-01-02T14:18:47.574Z,4.55
2023-01-02T14:21:17.701Z,4.30
2023-01-02T14:24:17.038Z,4.63
2023-01-02T14:26:39.881Z,4.18
2023-01-02T14:29:10.572Z,4.85
2023-01-02T14:31:39.546Z,4.07
2023-01-02T14:34:09.451Z,4.28
2023-01-02T14:36:42.276Z,4.03
2023-01-02T14:39:13.092Z,3.80
2023-01-02T14:42:27.657Z,4.00
2023-01-02T14:45:00.763Z,4.45
2023-01-02T14:47:35.090Z,4.38
2023-01-02T14:50:05.723Z,3.72
2023-01-02T14:52:40.731Z,3.88
2023-01-02T14:55:12.689Z,4.20
2023-01-02T14:57:41.935Z,4.65
2023-01-02T15:00:17.656Z,5.13
2023-01-02T15:02:47.687Z,4.32
2023-01-02T15:05:20.335Z,5.38
2023-01-02T15:07:50.389Z,5.20
2023-01-02T15:10:19.545Z,5.57
2023-01-02T15:13:07.717Z,5.25
2023-01-02T15:15:38.956Z,5.53
2023-01-02T15:18:11.003Z,5.75
2023-01-02T15:20:40.899Z,5.68
2023-01-02T15:23:09.405Z,5.45
2023-01-02T15:25:39.348Z,5.78
2023-01-02T15:28:08.180Z,5.40
2023-01-02T15:30:40.088Z,5.82
2023-01-02T15:33:08.681Z,6.07
2023-01-02T15:35:37.237Z,6.93
2023-01-02T15:38:20.414Z,6.53
2023-01-02T15:40:48.939Z,6.50
2023-01-02T15:43:35.472Z,6.43
2023-01-02T15:46:04.211Z,6.68
2023-01-02T15:48:32.696Z,7.40
2023-01-02T15:51:01.282Z,6.20
2023-01-02T15:53:32.045Z,6.80
2023-01-02T15:56:00.958Z,7.18
2023-01-02T15:58:30.032Z,6.15
2023-01-02T16:01:15.024Z,5.85
2023-01-02T16:04:01.422Z,6.47
2023-01-02T16:06:34.942Z,6.35
2023-01-02T16:09:06.747Z,5.93
2023-01-02T16:11:37.028Z,6.38
2023-01-02T16:14:22.373Z,5.38
2023-01-02T16:16:53.503Z,6.40
2023-01-02T16:19:24.214Z,6.53
2023-01-02T16:21:53.574Z,6.07
2023-01-02T16:24:25.663Z,5.70
2023-01-02T16:26:54.229Z,6.32
2023-01-02T16:29:24.099Z,6.72
2023-01-02T16:31:54.240Z,6.82
2023-01-02T16:34:41.431Z,6.70
2023-01-02T16:37:22.378Z,7.22
2023-01-02T16:39:52.659Z,7.03
2023-01-02T16:42:36.694Z,6.40
2023-01-02T16:45:06.053Z,5.25
2023-01-02T16:47:38.419Z,4.80
2023-01-02T16:50:08.006Z,4.20
2023-01-02T16:52:38.107Z,3.90
2023-01-02T16:55:08.646Z,3.88
2023-01-02T16:57:37.078Z,2.83
2023-01-02T17:00:06.287Z,2.72
2023-01-02T17:02:34.956Z,2.50
2023-01-02T17:05:03.994Z,2.90
2023-01-02T17:07:32.432Z,2.78
2023-01-02T17:10:00.913Z,2.92
2023-01-02T17:12:30.764Z,2.67
2023-01-02T17:14:59.290Z,2.13
2023-01-02T17:17:27.742Z,2.70
2023-01-02T17:19:56.151Z,1.65
2023-01-02T17:22:24.653Z,1.70
2023-01-02T17:24:53.037Z,1.38
2023-01-02T17:27:21.772Z,1.27
2023-01-02T17:29:51.580Z,1.65
2023-01-02T17:32:20.037Z,1.30
2023-01-02T17:34:48.624Z,1.42
2023-01-02T17:37:17.746Z,1.80
2023-01-02T17:39:47.685Z,1.38
2023-01-02T17:42:16.116Z,1.70
2023-01-02T17:44:44.547Z,1.65
2023-01-02T17:47:48.695Z,1.67
2023-01-02T17:50:03.098Z,1.90
2023-01-02T17:52:31.628Z,2.38
2023-01-02T17:55:00.043Z,1.98
2023-01-02T17:57:28.781Z,1.73
2023-01-02T17:59:57.713Z,2.00
2023-01-02T18:02:27.976Z,1.92
2023-01-02T18:04:56.499Z,1.95
2023-01-02T18:07:24.960Z,2.33
2023-01-02T18:10:07.391Z,2.38
2023-01-02T18:12:38.099Z,2.15
2023-01-02T18:15:11.799Z,2.55
2023-01-02T18:17:41.624Z,2.40
2023-01-02T18:20:12.687Z,2.92
2023-01-02T18:22:48.495Z,2.40
2023-01-02T18:25:20.291Z,2.40
2023-01-02T18:27:49.147Z,2.45
2023-01-02T18:30:19.757Z,3.00
2023-01-02T18:32:50.557Z,2.90
2023-01-02T18:35:55.440Z,2.80
2023-01-02T18:38:15.878Z,2.80
2023-01-02T18:40:44.419Z,2.80
2023-01-02T18:43:20.547Z,3.22
2023-01-02T18:45:51.000Z,2.58
2023-01-02T18:48:21.413Z,3.10
2023-01-02T18:50:58.942Z,3.47
2023-01-02T18:53:31.861Z,3.33
2023-01-02T18:56:02.147Z,3.22
2023-01-02T18:58:51.520Z,3.10
2023-01-02T19:01:27.645Z,4.05
2023-01-02T19:04:03.005Z,3.47
2023-01-02T19:06:35.000Z,3.60
2023-01-02T19:09:04.275Z,4.13
2023-01-02T19:11:51.966Z,3.90
2023-01-02T19:14:21.307Z,4.13
2023-01-02T19:16:50.527Z,4.22
2023-01-02T19:19:28.673Z,4.35
2023-01-02T19:21:59.595Z,3.88
2023-01-02T19:24:35.562Z,4.43
2023-01-02T19:27:04.655Z,4.30
2023-01-02T19:29:38.451Z,5.15
2023-01-02T19:32:13.890Z,4.90
2023-01-02T19:34:45.120Z,4.93
2023-01-02T19:37:23.625Z,4.70
2023-01-02T19:39:55.760Z,4.32
2023-01-02T19:42:24.925Z,5.40
2023-01-02T19:44:54.447Z,5.22
2023-01-02T19:47:23.757Z,5.03
2023-01-02T19:49:56.814Z,6.28
2023-01-02T19:52:29.410Z,6.03
2023-01-02T19:54:58.274Z,6.38
2023-01-02T19:57:27.034Z,5.38
2023-01-02T19:59:56.817Z,6.15
2023-01-02T20:02:25.894Z,6.13
2023-01-02T20:04:56.433Z,6.18
2023-01-02T20:07:25.936Z,5.75
2023-01-02T20:09:55.004Z,5.85
2023-01-02T20:12:40.208Z,6.28
2023-01-02T20:15:10.716Z,6.70
2023-01-02T20:17:39.735Z,6.97
2023-01-02T20:20:10.825Z,6.43
2023-01-02T20:22:39.449Z,6.70
2023-01-02T20:25:08.469Z,5.80
2023-01-02T20:27:37.229Z,6.60
2023-01-02T20:30:06.072Z,6.75
2023-01-02T20:32:34.540Z,7.20
2023-01-02T20:35:02.979Z,6.70
2023-01-02T20:37:32.850Z,7.45
2023-01-02T20:40:01.309Z,7.38
2023-01-02T20:42:29.803Z,7.80
2023-01-02T20:44:58.292Z,7.57
2023-01-02T20:47:27.010Z,8.05
2023-01-02T20:49:55.575Z,8.05
2023-01-02T20:52:23.982Z,7.95
2023-01-02T20:54:53.887Z,8.50
2023-01-02T20:57:22.316Z,7.95
2023-01-02T20:59:51.113Z,7.85
2023-01-02T21:02:20.110Z,7.85
2023-01-02T21:04:48.824Z,8.02
2023-01-02T21:07:17.258Z,8.20
2023-01-02T21:09:45.697Z,8.35
2023-01-02T21:12:29.441Z,8.63
2023-01-02T21:14:58.354Z,7.97
2023-01-02T21:17:27.005Z,8.05
2023-01-02T21:19:55.506Z,8.18
2023-01-02T21:22:24.011Z,7.97
2023-01-02T21:24:52.524Z,7.50
2023-01-02T21:27:22.313Z,9.15
2023-01-02T21:29:50.811Z,8.25
2023-01-02T21:32:19.271Z,8.38
2023-01-02T21:34:48.075Z,8.93
2023-01-02T21:37:16.539Z,9.35
2023-01-02T21:39:47.535Z,9.35
2023-01-02T21:42:19.291Z,10.27
2023-01-02T21:44:49.307Z,9.30
2023-01-02T21:47:18.326Z,9.98
2023-01-02T21:49:47.082Z,10.65
2023-01-02T21:52:15.858Z,10.43
2023-01-02T21:54:44.507Z,11.18
2023-01-02T21:57:13.545Z,12.02
2023-01-02T21:59:42.116Z,11.15
2023-01-02T22:02:12.084Z,10.70
2023-01-02T22:04:40.646Z,10.95
2023-01-02T22:09:57.580Z,11.20
2023-01-02T22:12:27.336Z,11.18
2023-01-02T22:14:55.843Z,10.98
2023-01-02T22:17:25.727Z,11.85
2023-01-02T22:19:54.432Z,11.70
2023-01-02T22:22:22.936Z,11.45
2023-01-02T22:24:51.587Z,11.68
2023-01-02T22:27:21.073Z,11.35
2023-01-02T22:32:40.425Z,12.55
2023-01-02T22:35:09.571Z,12.05
2023-01-02T22:37:38.035Z,12.57
2023-01-02T22:40:06.925Z,12.68
2023-01-02T22:43:02.699Z,11.00
2023-01-02T22:45:33.462Z,11.80
2023-01-02T22:48:05.138Z,12.43
2023-01-02T22:50:43.748Z,12.30
2023-01-02T22:53:17.370Z,12.23
2023-01-02T22:55:45.843Z,11.65
2023-01-02T22:58:14.277Z,13.38
2023-01-02T23:00:42.760Z,11.75
2023-01-02T23:03:14.282Z,13.60
2023-01-02T23:05:43.262Z,12.57
2023-01-02T23:08:11.752Z,13.30
2023-01-02T23:10:40.327Z,12.48
2023-01-02T23:13:08.732Z,11.85
2023-01-02T23:15:57.138Z,11.82
2023-01-02T23:18:44.781Z,11.82
2023-01-02T23:21:13.487Z,10.77
2023-01-02T23:23:42.335Z,11.18
2023-01-02T23:26:10.915Z,10.73
2023-01-02T23:29:06.030Z,10.30
2023-01-02T23:31:27.974Z,10.23
2023-01-02T23:33:57.837Z,9.57
2023-01-02T23:36:26.300Z,10.30
2023-01-02T23:38:54.753Z,9.25
2023-01-02T23:41:23.374Z,9.45
2023-01-02T23:43:52.504Z,8.90
2023-01-02T23:46:21.131Z,7.80
2023-01-02T23:48:49.599Z,8.57
2023-01-02T23:51:19.492Z,7.93
2023-01-02T23:53:47.919Z,7.00
2023-01-02T23:56:18.617Z,7.20
2023-01-02T23:58:47.152Z,7.55
